CVLO2: Caney R. Collinsville,Ok

                                SHEF ID:       CVLO2     Caney River near Collinsville, O
STATION TYPE:
Regulating: Stage = 26.00, Flow = 13763

PRECIP STAGE RIV-FLOW BAT-LOAD
in ft cfs volt
Ccp-Rev Ccp-Rev Ccp-Rev Ccp-Rev
(America/Chicago)
04/24 00:00 0.00 11.05 2527 12.40
04/24 01:00 1.01 11.12 2575 12.40
04/24 02:00 0.42 11.24 2658 12.40
04/24 03:00 0.10 11.38 2756 12.37
04/24 04:00 0.04 11.59 2905 12.36
04/24 05:00 0.00 12.07 3251 12.34
04/24 06:00 0.00 12.88 3685 12.32
04/24 07:00 0.00 13.84 4187 12.31
04/24 08:00 0.00 14.91 4878 12.28
04/24 09:00 0.00 15.94 5556 12.48
04/24 10:00 0.00 16.86 6172 12.60
04/24 11:00 0.00 17.61 6681 12.59
04/24 12:00 0.00 18.18 7071 12.60
04/24 13:00 0.00 18.65 7395 12.59
04/24 14:00 0.00 19.08 7693 12.84
04/24 15:00 0.00 19.43 7938 12.89
04/24 16:00 0.00 19.70 8127 12.88
04/24 17:00 0.00 19.91 8274 12.83
04/24 18:00 0.00 20.03 8358 12.73
04/24 19:00 0.00 20.11 8415 12.71
04/24 20:00 0.00 20.10 8408 12.48
04/24 21:00 0.00 20.05 8372 12.44
04/24 22:00 0.00 19.92 8281 12.43
04/24 23:00 ---- ---- ---- 12.44
Data processed at Sat 25Apr2026 04:44 GMT

NOTICE: If you are parsing this page

Please convert to using our Data API. Starting early 2026 we will be migrating to: https://water.usace.army.mil with modern pages rendered in JavaScript. When this migration completes you will no longer be able to scrape this page! CWMSDataAPI (CDA)

Timeseries IDs (TSIDs)

TSIDs used from left to right in the data table
COLL.Precip-Inc.Total.1Hour.1Hour.Ccp-Rev
COLL.Stage.Inst.1Hour.0.Ccp-Rev
COLL.Flow.Inst.1Hour.0.Ccp-Rev
COLL.Volt-Battery Load.Inst.1Hour.0.Ccp-Rev

                            

All information presented herein is the property of the government of the United States of America and may be revised or deleted at any time without prior notice. Dissemination of this information without the expressed written consent of the Public Affairs Office, Tulsa District U.S. Army Corps of Engineers is strictly prohibited. These data are gathered electronically and, as presented, have NOT undergone any form of quality control. These data are NOT guaranteed to be valid or correct.